ESGV weather

Varberg Getterön airfield
Varberg, Hallands län, Sweden

Public forecast

Using degrees Celsius for public forecast. Weather courtesy of forecast.io.

Closest aviation weather report (METAR) to Varberg Getterön airfield

Closest report is Gothenburg-Landvetter Airport, 32.4 nm (59.9 km) N. Retrieved 2019/10/18 02:20 UTC (5 minutes ago):

ESGG 180220Z 17006KT 6000 BKN025 08/08 Q1009

Closest aviation forecast (TAF) to Varberg Getterön airfield

Closest forecast is Gothenburg-Landvetter Airport, 32.4 nm (59.9 km) N. Retrieved 2019-10-18 00:33 UTC (2 hours ago):

TAF ESGG 172330Z 1800/1824 21005KT 9999 BKN025 PROB40 1800/1801 1400 BR BKN003 BECMG 1801/1803 0200 FG VV002 BECMG 1807/1809 9999 NSW SCT040 TEMPO 1813/1822 3000 RADZ BKN004 PROB40 1822/1824 BKN007